createdAt,value
2019-02-08T00:00:04.847Z,925.7
2019-02-08T00:00:18.501Z,925.73
2019-02-08T00:00:31.591Z,925.72
2019-02-08T00:00:44.664Z,925.72
2019-02-08T00:00:57.757Z,925.71
2019-02-08T00:01:10.886Z,925.74
2019-02-08T00:01:24.503Z,925.76
2019-02-08T00:01:37.549Z,925.74
2019-02-08T00:01:50.543Z,925.74
2019-02-08T00:02:03.598Z,925.79
2019-02-08T00:02:16.600Z,925.75
2019-02-08T00:02:30.239Z,925.75
2019-02-08T00:02:43.262Z,925.73
2019-02-08T00:02:56.329Z,925.78
2019-02-08T00:03:09.416Z,925.71
2019-02-08T00:03:22.507Z,925.72
2019-02-08T00:03:36.137Z,925.75
2019-02-08T00:03:49.451Z,925.82
2019-02-08T00:04:02.524Z,925.84
2019-02-08T00:04:15.081Z,925.8
2019-02-08T00:04:28.206Z,925.83
2019-02-08T00:04:41.360Z,925.79
2019-02-08T00:04:55.089Z,925.78
2019-02-08T00:05:08.151Z,925.78
2019-02-08T00:05:21.157Z,925.8
2019-02-08T00:05:34.198Z,925.79
2019-02-08T00:05:47.292Z,925.76
2019-02-08T00:06:00.904Z,925.78
2019-02-08T00:06:14.082Z,925.76
2019-02-08T00:06:27.162Z,925.77
2019-02-08T00:06:40.301Z,925.78
2019-02-08T00:06:53.325Z,925.74
2019-02-08T00:07:06.954Z,925.76
2019-02-08T00:07:19.972Z,925.82
2019-02-08T00:07:33.778Z,925.73
2019-02-08T00:07:46.901Z,925.77
2019-02-08T00:07:59.987Z,925.77
2019-02-08T00:08:13.687Z,925.73
2019-02-08T00:08:27.026Z,925.77
2019-02-08T00:08:40.032Z,925.75
2019-02-08T00:08:53.068Z,925.78
2019-02-08T00:09:06.192Z,925.74
2019-02-08T00:09:19.546Z,925.78
2019-02-08T00:09:32.797Z,925.76
2019-02-08T00:09:45.863Z,925.74
2019-02-08T00:09:58.966Z,925.72
2019-02-08T00:10:12.036Z,925.77
2019-02-08T00:10:25.067Z,925.78
2019-02-08T00:10:38.604Z,925.76
2019-02-08T00:10:51.629Z,925.79
2019-02-08T00:11:04.776Z,925.79
2019-02-08T00:11:17.816Z,925.77
2019-02-08T00:11:30.825Z,925.79
2019-02-08T00:11:44.424Z,925.8
2019-02-08T00:11:57.496Z,925.79
2019-02-08T00:12:10.634Z,925.79
2019-02-08T00:12:23.899Z,925.8
2019-02-08T00:12:36.953Z,925.82
2019-02-08T00:12:50.675Z,925.81
2019-02-08T00:13:03.987Z,925.78
2019-02-08T00:13:17.056Z,925.8
2019-02-08T00:13:30.125Z,925.87
2019-02-08T00:13:43.156Z,925.83
2019-02-08T00:13:55.984Z,925.83
2019-02-08T00:14:09.581Z,925.85
2019-02-08T00:14:22.676Z,925.88
2019-02-08T00:14:35.777Z,925.9
2019-02-08T00:14:48.778Z,925.89
2019-02-08T00:15:01.784Z,925.9
2019-02-08T00:15:15.603Z,925.87
2019-02-08T00:15:28.677Z,925.89
2019-02-08T00:15:41.682Z,925.89
2019-02-08T00:15:54.739Z,925.9
2019-02-08T00:16:07.816Z,925.91
2019-02-08T00:16:21.320Z,925.9
2019-02-08T00:16:34.332Z,925.94
2019-02-08T00:16:47.370Z,925.92
2019-02-08T00:17:00.477Z,925.94
2019-02-08T00:17:13.546Z,925.93
2019-02-08T00:17:27.215Z,925.94
2019-02-08T00:17:40.884Z,925.95
2019-02-08T00:17:53.006Z,925.94
2019-02-08T00:18:06.106Z,925.93
2019-02-08T00:18:19.090Z,925.91
2019-02-08T00:18:32.363Z,925.92
2019-02-08T00:18:46.027Z,925.92
2019-02-08T00:18:59.121Z,925.92
2019-02-08T00:19:12.124Z,925.95
2019-02-08T00:19:25.156Z,925.94
2019-02-08T00:19:38.188Z,925.93
2019-02-08T00:19:51.877Z,925.93
2019-02-08T00:20:04.929Z,925.9
2019-02-08T00:20:17.928Z,925.95
2019-02-08T00:20:30.958Z,925.94
2019-02-08T00:20:43.615Z,925.91
2019-02-08T00:20:57.075Z,925.93
2019-02-08T00:21:10.158Z,926
2019-02-08T00:21:23.198Z,925.94
2019-02-08T00:21:36.249Z,925.97
2019-02-08T00:21:49.330Z,925.95
2019-02-08T00:22:02.591Z,925.94
2019-02-08T00:22:16.099Z,925.96
2019-02-08T00:22:29.139Z,925.93
2019-02-08T00:22:42.657Z,925.93
2019-02-08T00:22:55.572Z,925.94
2019-02-08T00:23:08.672Z,925.91
2019-02-08T00:23:32.933Z,925.97
2019-02-08T00:23:45.982Z,925.9
2019-02-08T00:23:58.960Z,925.92
2019-02-08T00:24:12.028Z,925.96
2019-02-08T00:24:25.755Z,925.97
2019-02-08T00:24:38.844Z,925.98
2019-02-08T00:24:51.925Z,925.99
2019-02-08T00:25:05.071Z,925.96
2019-02-08T00:25:18.174Z,926
2019-02-08T00:25:31.760Z,925.95
2019-02-08T00:25:45.198Z,925.95
2019-02-08T00:25:58.222Z,925.94
2019-02-08T00:26:11.369Z,925.96
2019-02-08T00:26:24.410Z,925.96
2019-02-08T00:26:37.873Z,925.93
2019-02-08T00:26:51.405Z,925.96
2019-02-08T00:27:04.394Z,925.97
2019-02-08T00:27:17.507Z,925.96
2019-02-08T00:27:30.539Z,925.95
2019-02-08T00:27:43.551Z,925.97
2019-02-08T00:27:57.247Z,925.97
2019-02-08T00:28:10.305Z,925.99
2019-02-08T00:28:23.343Z,925.98
2019-02-08T00:28:36.386Z,926.02
2019-02-08T00:28:49.382Z,925.95
2019-02-08T00:29:03.013Z,926
2019-02-08T00:29:16.055Z,925.99
2019-02-08T00:29:29.168Z,925.97
2019-02-08T00:29:41.765Z,925.98
2019-02-08T00:29:54.791Z,925.96
2019-02-08T00:30:08.492Z,925.98
2019-02-08T00:30:21.745Z,925.96
2019-02-08T00:30:34.930Z,925.97
2019-02-08T00:30:48.016Z,925.95
2019-02-08T00:31:01.096Z,925.92
2019-02-08T00:31:14.577Z,925.93
2019-02-08T00:31:28.234Z,925.94
2019-02-08T00:31:41.316Z,925.99
2019-02-08T00:31:54.411Z,925.98
2019-02-08T00:32:07.495Z,925.99
2019-02-08T00:32:20.596Z,925.94
2019-02-08T00:32:34.100Z,925.95
2019-02-08T00:32:46.635Z,925.97
2019-02-08T00:32:59.787Z,925.94
2019-02-08T00:33:12.881Z,926
2019-02-08T00:33:25.848Z,925.99
2019-02-08T00:33:39.547Z,926.02
2019-02-08T00:33:52.611Z,926.02
2019-02-08T00:34:05.670Z,926.01
2019-02-08T00:34:18.720Z,926.02
2019-02-08T00:34:31.777Z,926.06
2019-02-08T00:34:45.542Z,926.01
2019-02-08T00:34:58.795Z,926.01
2019-02-08T00:35:11.846Z,926.04
2019-02-08T00:35:24.879Z,926.01
2019-02-08T00:35:37.945Z,926.06
2019-02-08T00:35:50.824Z,926.04
2019-02-08T00:36:04.270Z,926.01
2019-02-08T00:36:17.290Z,926.02
2019-02-08T00:36:30.329Z,926.02
2019-02-08T00:36:43.342Z,926.07
2019-02-08T00:36:56.376Z,926.03
2019-02-08T00:37:10.084Z,926.02
2019-02-08T00:37:23.142Z,926.04
2019-02-08T00:37:36.225Z,926.07
2019-02-08T00:37:50.010Z,926.04
2019-02-08T00:38:03.070Z,926.05
2019-02-08T00:38:16.193Z,926.04
2019-02-08T00:38:29.217Z,926.04
2019-02-08T00:38:42.311Z,926.04
2019-02-08T00:38:54.872Z,926.05
2019-02-08T00:39:07.890Z,926.03
2019-02-08T00:39:21.462Z,926.02
2019-02-08T00:39:34.815Z,926.05
2019-02-08T00:39:47.750Z,926.06
2019-02-08T00:40:00.764Z,926.03
2019-02-08T00:40:13.761Z,926.05
2019-02-08T00:40:27.122Z,926.07
2019-02-08T00:40:41.995Z,926.04
2019-02-08T00:40:55.026Z,926.05
2019-02-08T00:41:08.094Z,926.05
2019-02-08T00:41:21.123Z,926.05
2019-02-08T00:41:34.178Z,926.04
2019-02-08T00:41:48.028Z,926.04
2019-02-08T00:42:01.076Z,926.07
2019-02-08T00:42:14.088Z,926.09
2019-02-08T00:42:27.115Z,926.1
2019-02-08T00:42:40.197Z,926.06
2019-02-08T00:42:53.954Z,926.11
2019-02-08T00:43:06.980Z,926.1
2019-02-08T00:43:20.012Z,926.11
2019-02-08T00:43:32.637Z,926.07
2019-02-08T00:43:45.651Z,926.1
2019-02-08T00:43:59.153Z,926.13
2019-02-08T00:44:12.265Z,926.14
2019-02-08T00:44:25.242Z,926.16
2019-02-08T00:44:38.275Z,926.15
2019-02-08T00:44:51.351Z,926.13
2019-02-08T00:45:04.763Z,926.19
2019-02-08T00:45:18.324Z,926.17
2019-02-08T00:45:31.405Z,926.16
2019-02-08T00:45:44.495Z,926.18
2019-02-08T00:45:57.498Z,926.2
2019-02-08T00:46:10.552Z,926.2
2019-02-08T00:46:23.998Z,926.16
2019-02-08T00:46:37.030Z,926.21
2019-02-08T00:46:50.030Z,926.18
2019-02-08T00:47:03.051Z,926.22
2019-02-08T00:47:16.080Z,926.19
2019-02-08T00:47:29.634Z,926.19
2019-02-08T00:47:42.740Z,926.17
2019-02-08T00:47:55.726Z,926.19
2019-02-08T00:48:08.778Z,926.2
2019-02-08T00:48:21.849Z,926.2
2019-02-08T00:48:35.106Z,926.21
2019-02-08T00:48:48.446Z,926.2
2019-02-08T00:49:01.039Z,926.22
2019-02-08T00:49:14.094Z,926.23
2019-02-08T00:49:27.058Z,926.19
2019-02-08T00:49:40.026Z,926.24
2019-02-08T00:49:54.008Z,926.19
2019-02-08T00:50:07.042Z,926.17
2019-02-08T00:50:20.093Z,926.19
2019-02-08T00:50:33.134Z,926.19
2019-02-08T00:50:46.180Z,926.17
2019-02-08T00:51:00.048Z,926.19
2019-02-08T00:51:13.062Z,926.18
2019-02-08T00:51:26.118Z,926.17
2019-02-08T00:51:39.200Z,926.17
2019-02-08T00:51:52.199Z,926.22
2019-02-08T00:52:05.987Z,926.16
2019-02-08T00:52:18.958Z,926.17
2019-02-08T00:52:31.958Z,926.17
2019-02-08T00:52:44.946Z,926.22
2019-02-08T00:52:58.482Z,926.18
2019-02-08T00:53:11.907Z,926.22
2019-02-08T00:53:25.117Z,926.22
2019-02-08T00:53:43.629Z,926.22
2019-02-08T00:53:56.632Z,926.19
2019-02-08T00:54:09.634Z,926.22
2019-02-08T00:54:23.296Z,926.26
2019-02-08T00:54:36.485Z,926.18
2019-02-08T00:54:49.483Z,926.17
2019-02-08T00:55:02.543Z,926.19
2019-02-08T00:55:15.585Z,926.18
2019-02-08T00:55:28.972Z,926.16
2019-02-08T00:55:42.478Z,926.15
2019-02-08T00:55:55.452Z,926.17
2019-02-08T00:56:08.480Z,926.17
2019-02-08T00:56:21.531Z,926.16
2019-02-08T00:56:34.547Z,926.17
2019-02-08T00:56:48.200Z,926.16
2019-02-08T00:57:01.206Z,926.13
2019-02-08T00:57:14.291Z,926.14
2019-02-08T00:57:27.306Z,926.16
2019-02-08T00:57:40.349Z,926.16
2019-02-08T00:57:54.106Z,926.17
2019-02-08T00:58:07.146Z,926.19
2019-02-08T00:58:20.149Z,926.12
2019-02-08T00:58:33.204Z,926.22
2019-02-08T00:58:46.280Z,926.16
2019-02-08T00:58:59.896Z,926.15
2019-02-08T00:59:13.034Z,926.14
2019-02-08T00:59:26.120Z,926.14
2019-02-08T00:59:39.081Z,926.19
2019-02-08T00:59:52.100Z,926.17
2019-02-08T01:00:05.480Z,926.15
2019-02-08T01:00:19.157Z,926.1
2019-02-08T01:00:32.237Z,926.12
2019-02-08T01:00:45.264Z,926.1
2019-02-08T01:00:58.252Z,926.12
2019-02-08T01:01:11.373Z,926.13
2019-02-08T01:01:24.926Z,926.12
2019-02-08T01:01:38.001Z,926.1
2019-02-08T01:01:51.062Z,926.12
2019-02-08T01:02:04.120Z,926.08
2019-02-08T01:02:17.121Z,926.08
2019-02-08T01:02:30.816Z,926.05
2019-02-08T01:02:43.850Z,926.05
2019-02-08T01:02:56.897Z,926.08
2019-02-08T01:03:09.978Z,926.12
2019-02-08T01:03:23.038Z,926.08
2019-02-08T01:03:36.624Z,926.07
2019-02-08T01:03:49.805Z,926.09
2019-02-08T01:04:02.806Z,926.1
2019-02-08T01:04:15.900Z,926.09
2019-02-08T01:04:28.978Z,926.1
2019-02-08T01:04:42.432Z,926.08
2019-02-08T01:04:56.198Z,926.1
2019-02-08T01:05:09.227Z,926.08
2019-02-08T01:05:22.164Z,926.07
2019-02-08T01:05:35.219Z,926.08
2019-02-08T01:05:48.274Z,926.1
2019-02-08T01:06:01.776Z,926.09
2019-02-08T01:06:14.774Z,926.07
2019-02-08T01:06:27.815Z,926.05
2019-02-08T01:06:40.845Z,926.09
2019-02-08T01:06:53.868Z,926.08
2019-02-08T01:07:07.685Z,926.09
2019-02-08T01:07:20.779Z,926.1
2019-02-08T01:07:33.836Z,926.07
2019-02-08T01:07:46.878Z,926.07
2019-02-08T01:07:59.911Z,926.05
2019-02-08T01:08:13.453Z,926.04
2019-02-08T01:08:26.685Z,926.06
2019-02-08T01:08:39.681Z,926.03
2019-02-08T01:08:52.800Z,926.05
2019-02-08T01:09:05.811Z,926.05
2019-02-08T01:09:18.854Z,926.07
2019-02-08T01:09:32.640Z,926.06
2019-02-08T01:09:45.727Z,926.05
2019-02-08T01:09:58.764Z,926.05
2019-02-08T01:10:11.858Z,926.07
2019-02-08T01:10:24.932Z,926.05
2019-02-08T01:10:38.725Z,926.02
2019-02-08T01:10:51.752Z,926.04
2019-02-08T01:11:04.775Z,926.06
2019-02-08T01:11:17.872Z,926.06
2019-02-08T01:11:30.944Z,926.01
2019-02-08T01:11:43.914Z,926.03
2019-02-08T01:11:56.972Z,926.03
2019-02-08T01:12:09.977Z,926.05
2019-02-08T01:12:23.037Z,926.01
2019-02-08T01:12:35.590Z,926
2019-02-08T01:12:48.809Z,926.03
2019-02-08T01:13:02.516Z,926.03
2019-02-08T01:13:15.577Z,926.03
2019-02-08T01:13:29.615Z,926.01
2019-02-08T01:13:42.621Z,926
2019-02-08T01:13:55.637Z,926.02
2019-02-08T01:14:09.229Z,925.98
2019-02-08T01:14:22.292Z,925.99
2019-02-08T01:14:35.279Z,925.98
2019-02-08T01:14:48.319Z,925.96
2019-02-08T01:15:01.411Z,925.93
2019-02-08T01:15:15.401Z,925.96
2019-02-08T01:15:28.494Z,925.96
2019-02-08T01:15:41.519Z,925.92
2019-02-08T01:15:54.085Z,925.91
2019-02-08T01:16:07.079Z,925.93
2019-02-08T01:16:20.689Z,925.93
2019-02-08T01:16:33.869Z,925.9
2019-02-08T01:16:46.956Z,925.95
2019-02-08T01:17:00.044Z,925.92
2019-02-08T01:17:13.064Z,925.92
2019-02-08T01:17:26.318Z,925.92
2019-02-08T01:17:39.787Z,925.94
2019-02-08T01:17:52.810Z,925.95
2019-02-08T01:18:05.878Z,925.92
2019-02-08T01:18:18.887Z,925.93
2019-02-08T01:18:31.881Z,925.94
2019-02-08T01:18:45.379Z,925.92
2019-02-08T01:18:58.387Z,925.94
2019-02-08T01:19:11.386Z,925.94
2019-02-08T01:19:24.445Z,925.9
2019-02-08T01:19:37.461Z,925.94
2019-02-08T01:19:51.091Z,925.91
2019-02-08T01:20:04.272Z,925.92
2019-02-08T01:20:17.325Z,925.96
2019-02-08T01:20:30.346Z,925.92
2019-02-08T01:20:43.348Z,925.94
2019-02-08T01:20:56.890Z,925.94
2019-02-08T01:21:10.115Z,925.92
2019-02-08T01:21:23.182Z,925.94
2019-02-08T01:21:36.286Z,925.93
2019-02-08T01:21:49.368Z,925.94
2019-02-08T01:22:02.782Z,925.91
2019-02-08T01:22:15.963Z,925.93
2019-02-08T01:22:28.929Z,925.95
2019-02-08T01:22:42.041Z,925.94
2019-02-08T01:22:55.050Z,925.94
2019-02-08T01:23:08.400Z,925.94
2019-02-08T01:23:21.889Z,925.95
2019-02-08T01:23:42.128Z,925.92
2019-02-08T01:23:55.141Z,925.89
2019-02-08T01:24:08.176Z,925.91
2019-02-08T01:24:21.134Z,925.94
2019-02-08T01:24:34.282Z,925.93
2019-02-08T01:24:47.286Z,925.93
2019-02-08T01:25:00.309Z,925.9
2019-02-08T01:25:13.369Z,925.9
2019-02-08T01:25:26.329Z,925.91
2019-02-08T01:25:39.399Z,925.9
2019-02-08T01:25:52.459Z,925.91
2019-02-08T01:26:05.492Z,925.91
2019-02-08T01:26:18.441Z,925.89
2019-02-08T01:26:31.483Z,925.9
2019-02-08T01:26:44.419Z,925.87
2019-02-08T01:26:57.370Z,925.85
2019-02-08T01:27:10.354Z,925.88
2019-02-08T01:27:23.380Z,925.86
2019-02-08T01:27:36.416Z,925.88
2019-02-08T01:27:49.449Z,925.86
2019-02-08T01:28:02.452Z,925.86
2019-02-08T01:28:15.455Z,925.91
2019-02-08T01:28:28.489Z,925.88
2019-02-08T01:28:41.466Z,925.88
2019-02-08T01:28:54.450Z,925.87
2019-02-08T01:29:07.414Z,925.87
2019-02-08T01:29:20.452Z,925.87
2019-02-08T01:29:33.371Z,925.88
2019-02-08T01:29:46.363Z,925.87
2019-02-08T01:29:59.372Z,925.88
2019-02-08T01:30:12.378Z,925.86
2019-02-08T01:30:25.399Z,925.86
2019-02-08T01:30:38.399Z,925.84
2019-02-08T01:30:51.383Z,925.84
2019-02-08T01:31:04.380Z,925.84
2019-02-08T01:31:17.472Z,925.85
2019-02-08T01:31:30.543Z,925.85
2019-02-08T01:31:43.123Z,925.82
2019-02-08T01:31:56.087Z,925.85
2019-02-08T01:32:09.113Z,925.85
2019-02-08T01:32:22.175Z,925.85
2019-02-08T01:32:35.204Z,925.87
2019-02-08T01:32:48.148Z,925.86
2019-02-08T01:33:01.124Z,925.87
2019-02-08T01:33:14.143Z,925.86
2019-02-08T01:33:27.155Z,925.85
2019-02-08T01:33:40.120Z,925.81
2019-02-08T01:33:53.180Z,925.81
2019-02-08T01:34:06.233Z,925.82
2019-02-08T01:34:19.214Z,925.81
2019-02-08T01:34:32.175Z,925.83
2019-02-08T01:34:45.218Z,925.82
2019-02-08T01:34:58.207Z,925.86
2019-02-08T01:35:11.202Z,925.84
2019-02-08T01:35:24.228Z,925.84
2019-02-08T01:35:37.215Z,925.83
2019-02-08T01:35:50.255Z,925.83
2019-02-08T01:36:03.312Z,925.83
2019-02-08T01:36:16.302Z,925.85
2019-02-08T01:36:29.225Z,925.86
2019-02-08T01:36:42.251Z,925.84
2019-02-08T01:36:55.244Z,925.86
2019-02-08T01:37:08.293Z,925.84
2019-02-08T01:37:20.797Z,925.82
2019-02-08T01:37:33.798Z,925.87
2019-02-08T01:37:46.806Z,925.85
2019-02-08T01:37:59.902Z,925.84
2019-02-08T01:38:13.505Z,925.83
2019-02-08T01:38:26.444Z,925.87
2019-02-08T01:38:39.383Z,925.84
2019-02-08T01:38:52.355Z,925.86
2019-02-08T01:39:05.344Z,925.87
2019-02-08T01:39:18.385Z,925.87
2019-02-08T01:39:31.352Z,925.87
2019-02-08T01:39:44.356Z,925.85
2019-02-08T01:39:57.359Z,925.86
2019-02-08T01:40:10.363Z,925.88
2019-02-08T01:40:23.387Z,925.87
2019-02-08T01:40:36.414Z,925.84
2019-02-08T01:40:49.402Z,925.86
2019-02-08T01:41:02.477Z,925.9
2019-02-08T01:41:15.577Z,925.89
2019-02-08T01:41:28.568Z,925.89
2019-02-08T01:41:41.595Z,925.88
2019-02-08T01:41:54.589Z,925.9
2019-02-08T01:42:07.572Z,925.88
2019-02-08T01:42:20.570Z,925.9
2019-02-08T01:42:33.540Z,925.92
2019-02-08T01:42:46.524Z,925.9
2019-02-08T01:42:59.508Z,925.93
2019-02-08T01:43:12.107Z,925.89
2019-02-08T01:43:24.687Z,925.9
2019-02-08T01:43:37.673Z,925.91
2019-02-08T01:43:50.674Z,925.93
2019-02-08T01:44:03.656Z,925.92
2019-02-08T01:44:16.661Z,925.95
2019-02-08T01:44:29.679Z,925.96
2019-02-08T01:44:42.668Z,925.92
2019-02-08T01:44:55.691Z,925.9
2019-02-08T01:45:08.292Z,925.91
2019-02-08T01:45:21.290Z,925.94
2019-02-08T01:45:34.266Z,925.93
2019-02-08T01:45:46.836Z,925.94
2019-02-08T01:45:59.854Z,925.92
2019-02-08T01:46:12.764Z,925.92
2019-02-08T01:46:25.778Z,925.91
2019-02-08T01:46:38.813Z,925.96
2019-02-08T01:46:51.823Z,925.95
2019-02-08T01:47:04.865Z,925.97
2019-02-08T01:47:17.911Z,925.95
2019-02-08T01:47:30.947Z,925.94
2019-02-08T01:47:43.981Z,925.95
2019-02-08T01:47:57.015Z,925.96
2019-02-08T01:48:10.067Z,925.96
2019-02-08T01:48:23.050Z,925.97
2019-02-08T01:48:36.068Z,925.95
2019-02-08T01:48:49.104Z,925.97
2019-02-08T01:49:01.688Z,925.96
2019-02-08T01:49:14.672Z,925.97
2019-02-08T01:49:27.650Z,925.93
2019-02-08T01:49:40.651Z,925.95
2019-02-08T01:49:53.717Z,925.95
2019-02-08T01:50:06.744Z,925.95
2019-02-08T01:50:19.801Z,925.96
2019-02-08T01:50:32.828Z,925.91
2019-02-08T01:50:45.839Z,925.97
2019-02-08T01:50:58.870Z,925.93
2019-02-08T01:51:12.662Z,925.99
2019-02-08T01:51:25.700Z,925.95
2019-02-08T01:51:38.734Z,925.97
2019-02-08T01:51:51.737Z,925.98
2019-02-08T01:52:04.730Z,925.94
2019-02-08T01:52:17.753Z,925.95
2019-02-08T01:52:30.732Z,925.93
2019-02-08T01:52:43.767Z,925.95
2019-02-08T01:52:56.747Z,925.93
2019-02-08T01:53:09.744Z,925.95
2019-02-08T01:53:23.797Z,925.94
2019-02-08T01:53:36.835Z,925.91
2019-02-08T01:53:55.814Z,925.93
2019-02-08T01:54:08.863Z,925.93
2019-02-08T01:54:21.868Z,925.93
2019-02-08T01:54:34.834Z,925.93
2019-02-08T01:54:47.862Z,925.95
2019-02-08T01:55:00.419Z,925.92
2019-02-08T01:55:13.431Z,925.92
2019-02-08T01:55:26.518Z,925.88
2019-02-08T01:55:39.596Z,925.83
2019-02-08T01:55:52.603Z,925.87
2019-02-08T01:56:05.572Z,925.89
2019-02-08T01:56:18.596Z,925.88
2019-02-08T01:56:31.609Z,925.88
2019-02-08T01:56:44.566Z,925.84
2019-02-08T01:56:57.516Z,925.86
2019-02-08T01:57:10.520Z,925.84
2019-02-08T01:57:23.541Z,925.85
2019-02-08T01:57:36.563Z,925.83
2019-02-08T01:57:49.529Z,925.83
2019-02-08T01:58:02.582Z,925.82
2019-02-08T01:58:15.562Z,925.83
2019-02-08T01:58:28.549Z,925.85
2019-02-08T01:58:41.530Z,925.81
2019-02-08T01:58:54.591Z,925.82
2019-02-08T01:59:07.584Z,925.82
2019-02-08T01:59:20.595Z,925.82
2019-02-08T01:59:33.616Z,925.82
2019-02-08T01:59:46.653Z,925.81
2019-02-08T01:59:59.742Z,925.85
2019-02-08T02:00:14.147Z,925.84
2019-02-08T02:00:27.085Z,925.84
2019-02-08T02:00:40.105Z,925.83
2019-02-08T02:00:53.176Z,925.81
2019-02-08T02:01:06.227Z,925.8
2019-02-08T02:01:19.238Z,925.87
2019-02-08T02:01:32.267Z,925.84
2019-02-08T02:01:45.313Z,925.85
2019-02-08T02:01:57.875Z,925.85
2019-02-08T02:02:10.853Z,925.81
2019-02-08T02:02:23.875Z,925.81
2019-02-08T02:02:36.835Z,925.82
2019-02-08T02:02:49.857Z,925.82
2019-02-08T02:03:02.883Z,925.8
2019-02-08T02:03:15.930Z,925.83
2019-02-08T02:03:28.980Z,925.83
2019-02-08T02:03:42.030Z,925.79
2019-02-08T02:03:55.103Z,925.83
2019-02-08T02:04:07.675Z,925.79
2019-02-08T02:04:20.684Z,925.78
2019-02-08T02:04:33.700Z,925.75
2019-02-08T02:04:46.713Z,925.79
2019-02-08T02:04:59.750Z,925.77
2019-02-08T02:05:12.767Z,925.77
2019-02-08T02:05:25.779Z,925.78
2019-02-08T02:05:38.811Z,925.77
2019-02-08T02:05:51.817Z,925.75
2019-02-08T02:06:04.810Z,925.74
2019-02-08T02:06:17.882Z,925.71
2019-02-08T02:06:30.851Z,925.72
2019-02-08T02:06:43.890Z,925.73
2019-02-08T02:06:56.883Z,925.72
2019-02-08T02:07:09.923Z,925.69
2019-02-08T02:07:22.963Z,925.7
2019-02-08T02:07:36.044Z,925.71
2019-02-08T02:07:49.088Z,925.71
2019-02-08T02:08:02.065Z,925.72
2019-02-08T02:08:15.048Z,925.71
2019-02-08T02:08:28.890Z,925.7
2019-02-08T02:08:41.880Z,925.66
2019-02-08T02:08:54.944Z,925.65
2019-02-08T02:09:07.921Z,925.65
2019-02-08T02:09:20.942Z,925.66
2019-02-08T02:09:33.940Z,925.64
2019-02-08T02:09:47.033Z,925.63
2019-02-08T02:10:00.041Z,925.64
2019-02-08T02:10:13.025Z,925.64
2019-02-08T02:10:25.998Z,925.66
2019-02-08T02:10:38.947Z,925.65
2019-02-08T02:10:52.017Z,925.61
2019-02-08T02:11:05.003Z,925.65
2019-02-08T02:11:17.964Z,925.63
2019-02-08T02:11:31.016Z,925.63
2019-02-08T02:11:44.007Z,925.64
2019-02-08T02:11:57.061Z,925.65
2019-02-08T02:12:10.113Z,925.62
2019-02-08T02:12:23.149Z,925.63
2019-02-08T02:12:36.138Z,925.61
2019-02-08T02:12:48.642Z,925.63
2019-02-08T02:13:01.677Z,925.63
2019-02-08T02:13:14.776Z,925.64
2019-02-08T02:13:27.784Z,925.62
2019-02-08T02:13:40.758Z,925.64
2019-02-08T02:13:53.764Z,925.69
2019-02-08T02:14:06.797Z,925.66
2019-02-08T02:14:19.791Z,925.66
2019-02-08T02:14:32.846Z,925.67
2019-02-08T02:14:45.839Z,925.69
2019-02-08T02:14:58.785Z,925.65
2019-02-08T02:15:11.703Z,925.65
2019-02-08T02:15:24.727Z,925.64
2019-02-08T02:15:37.707Z,925.64
2019-02-08T02:15:50.706Z,925.63
2019-02-08T02:16:05.261Z,925.7
2019-02-08T02:16:18.225Z,925.66
2019-02-08T02:16:31.261Z,925.66
2019-02-08T02:16:44.311Z,925.66
2019-02-08T02:16:57.338Z,925.66
2019-02-08T02:17:10.455Z,925.68
2019-02-08T02:17:23.459Z,925.67
2019-02-08T02:17:36.430Z,925.7
2019-02-08T02:17:49.431Z,925.69
2019-02-08T02:18:02.441Z,925.7
2019-02-08T02:18:15.510Z,925.68
2019-02-08T02:18:28.518Z,925.69
2019-02-08T02:18:41.132Z,925.7
2019-02-08T02:18:54.140Z,925.67
2019-02-08T02:19:07.140Z,925.69
2019-02-08T02:19:20.125Z,925.7
2019-02-08T02:19:33.134Z,925.68
2019-02-08T02:19:46.207Z,925.7
2019-02-08T02:19:59.247Z,925.7
2019-02-08T02:20:12.250Z,925.71
2019-02-08T02:20:25.224Z,925.72
2019-02-08T02:20:38.278Z,925.73
2019-02-08T02:20:51.325Z,925.71
2019-02-08T02:21:04.303Z,925.74
2019-02-08T02:21:17.305Z,925.73
2019-02-08T02:21:30.298Z,925.74
2019-02-08T02:21:43.318Z,925.72
2019-02-08T02:21:56.256Z,925.78
2019-02-08T02:22:09.290Z,925.76
2019-02-08T02:22:21.814Z,925.73
2019-02-08T02:22:34.838Z,925.78
2019-02-08T02:22:47.819Z,925.75
2019-02-08T02:23:00.885Z,925.77
2019-02-08T02:23:13.420Z,925.75
2019-02-08T02:23:26.442Z,925.81
2019-02-08T02:23:40.488Z,925.77
2019-02-08T02:24:00.237Z,925.82
2019-02-08T02:24:12.763Z,925.8
2019-02-08T02:24:28.834Z,925.81
2019-02-08T02:24:41.851Z,925.81
2019-02-08T02:24:54.896Z,925.79
2019-02-08T02:25:07.954Z,925.84
2019-02-08T02:25:21.025Z,925.83
2019-02-08T02:25:33.598Z,925.86
2019-02-08T02:25:46.667Z,925.82
2019-02-08T02:25:59.719Z,925.83
2019-02-08T02:26:12.750Z,925.84
2019-02-08T02:26:25.800Z,925.8
2019-02-08T02:26:38.825Z,925.82
2019-02-08T02:26:51.890Z,925.83
2019-02-08T02:27:04.863Z,925.81
2019-02-08T02:27:17.861Z,925.81
2019-02-08T02:27:30.827Z,925.84
2019-02-08T02:27:43.811Z,925.78
2019-02-08T02:27:56.767Z,925.79
2019-02-08T02:28:09.786Z,925.8
2019-02-08T02:28:22.384Z,925.83
2019-02-08T02:28:35.370Z,925.84
2019-02-08T02:28:48.412Z,925.82
2019-02-08T02:29:01.367Z,925.81
2019-02-08T02:29:13.879Z,925.86
2019-02-08T02:29:26.860Z,925.82
2019-02-08T02:29:39.907Z,925.84
2019-02-08T02:29:52.891Z,925.82
2019-02-08T02:30:05.839Z,925.83
2019-02-08T02:30:18.794Z,925.85
2019-02-08T02:30:31.819Z,925.89
2019-02-08T02:30:44.909Z,925.82
2019-02-08T02:30:57.916Z,925.8
2019-02-08T02:31:10.454Z,925.8
2019-02-08T02:31:23.568Z,925.82
2019-02-08T02:31:36.555Z,925.83
2019-02-08T02:31:49.624Z,925.82
2019-02-08T02:32:02.722Z,925.79
2019-02-08T02:32:15.776Z,925.84
2019-02-08T02:32:28.773Z,925.82
2019-02-08T02:32:41.815Z,925.82
2019-02-08T02:32:54.812Z,925.83
2019-02-08T02:33:07.902Z,925.81
2019-02-08T02:33:21.054Z,925.81
2019-02-08T02:33:34.073Z,925.79
2019-02-08T02:33:47.158Z,925.81
2019-02-08T02:34:00.216Z,925.82
2019-02-08T02:34:12.763Z,925.76
2019-02-08T02:34:25.789Z,925.8
2019-02-08T02:34:38.743Z,925.83
2019-02-08T02:34:51.727Z,925.77
2019-02-08T02:35:04.719Z,925.74
2019-02-08T02:35:17.764Z,925.8
2019-02-08T02:35:30.684Z,925.77
2019-02-08T02:35:43.712Z,925.76
2019-02-08T02:35:56.790Z,925.77
2019-02-08T02:36:09.809Z,925.77
2019-02-08T02:36:22.840Z,925.75
2019-02-08T02:36:35.876Z,925.75
2019-02-08T02:36:48.851Z,925.75
2019-02-08T02:37:01.846Z,925.75
2019-02-08T02:37:14.918Z,925.73
2019-02-08T02:37:27.974Z,925.77
2019-02-08T02:37:41.025Z,925.72
2019-02-08T02:37:54.049Z,925.71
2019-02-08T02:38:07.017Z,925.73
2019-02-08T02:38:20.084Z,925.72
2019-02-08T02:38:33.081Z,925.7
2019-02-08T02:38:46.864Z,925.68
2019-02-08T02:38:59.778Z,925.72
2019-02-08T02:39:12.824Z,925.71
2019-02-08T02:39:25.886Z,925.71
2019-02-08T02:39:38.951Z,925.75
2019-02-08T02:39:51.995Z,925.74
2019-02-08T02:40:05.033Z,925.75
2019-02-08T02:40:18.011Z,925.73
2019-02-08T02:40:30.634Z,925.73
2019-02-08T02:40:43.646Z,925.71
2019-02-08T02:40:56.640Z,925.71
2019-02-08T02:41:09.581Z,925.72
2019-02-08T02:41:22.163Z,925.72
2019-02-08T02:41:35.196Z,925.69
2019-02-08T02:41:48.301Z,925.7
2019-02-08T02:42:01.330Z,925.71
2019-02-08T02:42:14.394Z,925.67
2019-02-08T02:42:27.398Z,925.69
2019-02-08T02:42:40.482Z,925.67
2019-02-08T02:42:53.604Z,925.68
2019-02-08T02:43:06.694Z,925.69
2019-02-08T02:43:19.726Z,925.65
2019-02-08T02:43:33.667Z,925.64
2019-02-08T02:43:46.640Z,925.66
2019-02-08T02:43:59.650Z,925.65
2019-02-08T02:44:12.209Z,925.67
2019-02-08T02:44:25.180Z,925.63